AirNav   Duncan Aviation - Near you to keep you flying
 
 763 users online  

4TA2 V-Bar Airport
China Spring, Texas, USA

GOING TO CHINA SPRING?


FAA INFORMATION EFFECTIVE 16 JUNE 2022

Location

FAA Identifier: 4TA2
Lat/Long: 31-44-32.1000N 097-19-11.5000W
31-44.535000N 097-19.191667W
31.7422500,-97.3198611
(estimated)
Elevation: 565 ft. / 172 m (estimated)
Time zone: UTC -5 (UTC -6 during Standard Time)
Zip code: 76633

Airport Operations

Airport use: Private use. Permission required prior to landing
Activation date: 01/2015
Control tower: no
ARTCC: FORT WORTH CENTER
FSS: FORT WORTH FLIGHT SERVICE STATION
Attendance: UNATTND
Segmented circle: no

Airport Communications

WX ASOS at ACT (9 nm SE): PHONE 254-759-3065
WX AWOS-3PT at CNW (14 nm SE): 134.225 (254-867-3880)
WX AWOS-3PT at PWG (15 nm S): 135.525 (254-848-4581)

Airport Services

Runway Information

Runway 6/24

Dimensions: 1976 x 75 ft. / 602 x 23 m
Surface: turf
RUNWAY 6  RUNWAY 24
Traffic pattern: leftleft

Airport Ownership and Management from official FAA records

Ownership: Privately-owned
Owner: VAN GRANGER
1315 CR 3660
CHINA SPRING, TX 76633
Phone 254-836-9731
Manager: TIM COMPTON
623 CR 3660
CHINA SPRING, TX 76633
Phone 254-214-9526

Additional Remarks

FOR CD CTC FORT WORTH ARTCC AT 817-858-7584.

Instrument Procedures

There are no published instrument procedures at 4TA2.

Some nearby airports with instrument procedures:

KACT - Waco Regional Airport (9 nm SE)
KCNW - TSTC Waco Airport (14 nm SE)
KPWG - Mc Gregor Executive Airport (15 nm S)
KINJ - Hillsboro Municipal Airport (23 nm NE)
T15 - Marlin Airport (34 nm SE)
 
Loc | Ops | Rwys | IFR | FBO | Links
Com | Nav | Svcs | Stats | Notes

City of Fort Worth
 
Aerial photo
No photo
 
Airport distance calculator
Flying to V-Bar Airport? Find the distance to fly.

From to 4TA2

Sunrise and sunset
Times for 25-Jun-2022
 Local
(UTC-5)
 Zulu
(UTC)
Morning civil twilight05:5810:58
Sunrise06:2611:26
Sunset20:3701:37
Evening civil twilight21:0602:06

Current date and time
Zulu (UTC)  25-Jun-2022 11:39:41
Local (UTC-5)  25-Jun-2022 06:39:41
 
METAR
KACT 
9nm SE 
251051Z 19007KT 10SM CLR 26/19 A2995 RMK AO2 SLP132 T02610189
KCNW 
14nm SE 
250355Z 14005KT 10SM SKC 28/15 A2989
KPWG 
17nm S 
251056Z AUTO 19006KT 10SM CLR 25/19 A2996 RMK AO2 SLP137 T02500194
TAF
KACT 
9nm SE 
250857Z 2509/2606 18011KT P6SM FEW100 SCT250
NOTAMs
Click for the latest NOTAMs
NOTAMs are issued by the DoD/FAA and will open in a separate window not controlled by AirNav.

 

 
 

Would you like to see your business listed on this page?

 If your business provides an interesting product or service to pilots, flight crews, aircraft, or users of the V-Bar Airport, you should consider listing it here.  To start the listing process, click on the button below
 
Add a business
 

Other Pages about V-Bar Airport

Update a link
 
Copyright © AirNav, LLC. All rights reserved. Privacy Policy  Contact